Time;durP1;ratioP1;P1;durP2;ratioP2;P2;SDS_P1;SDS_P2;PMS_P1;PMS_P2;Temp;Humidity;BMP_temperature;BMP_pressure;BME280_temperature;BME280_humidity;BME280_pressure;Samples;Min_cycle;Max_cycle;Signal;HPM_P1;HPM_P2
2021/12/12 00:01:22;;;;;;;50.67;28.02;;;;;;;0.35;100.00;101485.22;4868154;29;20033;-82
2021/12/12 00:03:53;;;;;;;52.70;28.10;;;;;;;0.25;100.00;101473.63;4867929;29;20026;-82
2021/12/12 00:06:24;;;;;;;51.90;28.88;;;;;;;0.25;100.00;101478.94;4867206;29;20041;-82
2021/12/12 00:08:56;;;;;;;55.53;29.13;;;;;;;0.10;100.00;101475.66;4868379;29;20035;-82
2021/12/12 00:11:28;;;;;;;51.20;30.05;;;;;;;0.10;100.00;101485.34;4868508;29;20081;-82
2021/12/12 00:14:00;;;;;;;66.10;31.65;;;;;;;0.05;100.00;101484.88;4867816;29;20048;-82
2021/12/12 00:16:26;;;;;;;57.17;30.20;;;;;;;-0.01;100.00;101494.09;4869688;29;20036;-82
2021/12/12 00:18:52;;;;;;;57.25;30.80;;;;;;;-0.09;100.00;101499.13;4866890;29;20053;-82
2021/12/12 00:21:21;;;;;;;53.25;29.10;;;;;;;-0.15;100.00;101503.06;4866583;29;20034;-81
2021/12/12 00:23:47;;;;;;;57.20;30.38;;;;;;;-0.18;100.00;101495.34;4867345;29;20092;-82
2021/12/12 00:26:13;;;;;;;53.28;29.23;;;;;;;-0.25;100.00;101486.19;4870224;29;20073;-81
2021/12/12 00:28:40;;;;;;;50.95;28.27;;;;;;;-0.37;100.00;101457.97;4871725;29;20065;-82
2021/12/12 00:31:10;;;;;;;52.65;29.75;;;;;;;-0.29;100.00;101476.78;4869413;29;20037;-82
2021/12/12 00:33:40;;;;;;;49.53;28.35;;;;;;;-0.27;100.00;101491.56;4869581;29;20441;-80
2021/12/12 00:36:06;;;;;;;56.60;30.38;;;;;;;-0.38;100.00;101485.38;4875231;29;20058;-81
2021/12/12 00:38:33;;;;;;;61.97;32.13;;;;;;;-0.35;100.00;101483.34;4882420;29;20037;-81
2021/12/12 00:41:05;;;;;;;56.97;30.02;;;;;;;-0.38;100.00;101482.75;4873457;29;20096;-82
2021/12/12 00:43:59;;;;;;;51.13;28.98;;;;;;;-0.45;100.00;101476.22;4870212;29;20029;-82
2021/12/12 00:46:25;;;;;;;55.20;28.15;;;;;;;-0.45;100.00;101484.16;4870516;29;20037;-82
2021/12/12 00:48:53;;;;;;;53.80;29.13;;;;;;;-0.46;100.00;101488.59;4846037;29;20052;-82
2021/12/12 00:51:23;;;;;;;53.97;29.83;;;;;;;-0.44;100.00;101494.59;4836211;29;20034;-82
2021/12/12 00:53:49;;;;;;;54.80;30.45;;;;;;;-0.43;100.00;101492.78;4861474;29;20022;-82
2021/12/12 00:56:15;;;;;;;52.22;28.90;;;;;;;-0.49;100.00;101484.38;4872023;29;20029;-83
2021/12/12 00:58:40;;;;;;;53.30;29.88;;;;;;;-0.39;100.00;101497.75;4869145;29;20033;-82
2021/12/12 01:01:14;;;;;;;54.92;28.83;;;;;;;-0.38;100.00;101495.97;4855469;29;20364;-82
2021/12/12 01:03:53;;;;;;;48.58;27.88;;;;;;;-0.45;100.00;101497.38;4860928;29;20041;-82
2021/12/12 01:06:21;;;;;;;48.05;27.45;;;;;;;-0.36;100.00;101509.94;4866569;29;20033;-82
2021/12/12 01:08:48;;;;;;;50.13;28.30;;;;;;;-0.41;100.00;101506.75;4869025;29;20123;-82
2021/12/12 01:11:23;;;;;;;50.30;27.27;;;;;;;-0.32;100.00;101537.81;4875047;29;20037;-82
2021/12/12 01:13:49;;;;;;;51.42;28.65;;;;;;;-0.39;100.00;101528.66;4865783;29;20025;-83
2021/12/12 01:16:35;;;;;;;51.67;27.23;;;;;;;-0.43;100.00;101535.09;4877953;29;20033;-82
2021/12/12 01:19:07;;;;;;;49.55;26.42;;;;;;;-0.48;100.00;101523.06;4869943;29;20072;-82
2021/12/12 01:21:41;;;;;;;43.97;26.50;;;;;;;-0.57;100.00;101507.00;4868309;29;20055;-82
2021/12/12 01:24:19;;;;;;;47.15;26.75;;;;;;;-0.35;100.00;101535.41;4869352;29;20038;-82
2021/12/12 01:26:46;;;;;;;46.80;26.58;;;;;;;-0.36;100.00;101531.91;4868636;29;20048;-82
2021/12/12 01:29:13;;;;;;;45.10;25.60;;;;;;;-0.33;100.00;101533.47;4868298;29;20112;-82
2021/12/12 01:31:46;;;;;;;45.90;26.08;;;;;;;-0.32;100.00;101533.38;4863856;29;20082;-82
2021/12/12 01:34:16;;;;;;;51.55;26.35;;;;;;;-0.27;100.00;101541.81;4850074;29;20029;-82
2021/12/12 01:39:35;;;;;;;48.75;26.85;;;;;;;-0.24;100.00;101557.47;4866034;29;20025;-82
2021/12/12 01:42:14;;;;;;;43.95;24.83;;;;;;;-0.22;100.00;101553.88;4866677;29;20033;-82
2021/12/12 01:44:52;;;;;;;43.33;25.67;;;;;;;-0.25;100.00;101555.78;4866393;29;20038;-82
2021/12/12 01:47:46;;;;;;;42.80;24.27;;;;;;;-0.30;100.00;101552.63;4867802;29;20049;-82
2021/12/12 01:50:41;;;;;;;38.55;23.27;;;;;;;-0.40;100.00;101538.34;4861954;29;20052;-82
2021/12/12 01:53:11;;;;;;;42.35;24.60;;;;;;;-0.43;100.00;101535.09;4860262;29;20042;-82
2021/12/12 01:55:47;;;;;;;40.50;23.63;;;;;;;-0.36;100.00;101546.94;4849935;29;20398;-82
2021/12/12 01:58:17;;;;;;;45.53;24.95;;;;;;;-0.29;100.00;101558.78;4864102;29;20033;-82
2021/12/12 02:00:50;;;;;;;44.83;25.00;;;;;;;-0.32;100.00;101551.06;4866665;29;20049;-81
2021/12/12 02:03:20;;;;;;;44.78;25.92;;;;;;;-0.41;100.00;101530.56;4866088;29;20029;-82
2021/12/12 02:05:47;;;;;;;48.20;26.15;;;;;;;-0.33;100.00;101544.94;4866138;29;20049;-82
2021/12/12 02:08:16;;;;;;;42.28;23.67;;;;;;;-0.23;100.00;101545.09;4854523;29;20094;-82
2021/12/12 02:10:46;;;;;;;43.28;25.70;;;;;;;-0.33;100.00;101531.69;4846039;29;20057;-82
2021/12/12 02:13:15;;;;;;;46.40;24.70;;;;;;;-0.27;100.00;101533.03;4860628;29;20030;-82
2021/12/12 02:15:45;;;;;;;47.63;26.40;;;;;;;-0.26;100.00;101526.81;4869647;29;20025;-82
2021/12/12 02:18:14;;;;;;;43.08;25.35;;;;;;;-0.21;100.00;101537.88;4867233;29;20467;-82
2021/12/12 02:21:09;;;;;;;48.60;25.90;;;;;;;-0.16;100.00;101542.88;4848812;29;20045;-82
2021/12/12 02:37:07;;;;;;;40.65;22.70;;;;;;;0.05;100.00;101537.78;4845413;29;20106;-81
2021/12/12 02:39:37;;;;;;;43.17;24.40;;;;;;;0.14;100.00;101540.59;4846544;29;20117;-82
2021/12/12 02:42:07;;;;;;;45.67;25.10;;;;;;;0.12;100.00;101526.63;4846679;29;20105;-82
2021/12/12 02:44:36;;;;;;;42.67;25.02;;;;;;;0.27;100.00;101537.91;4847478;29;20042;-82
2021/12/12 02:47:10;;;;;;;46.28;25.88;;;;;;;0.37;100.00;101548.66;4843925;29;20032;-81
2021/12/12 02:49:39;;;;;;;44.87;25.70;;;;;;;0.44;100.00;101558.66;4850481;29;20030;-82
2021/12/12 02:52:08;;;;;;;47.17;26.50;;;;;;;0.45;100.00;101538.31;4861167;29;20026;-81
2021/12/12 02:54:34;;;;;;;45.88;25.67;;;;;;;0.34;100.00;101517.09;4855038;29;20037;-82
2021/12/12 02:57:00;;;;;;;45.40;25.85;;;;;;;0.42;100.00;101528.78;4849556;29;20029;-82
2021/12/12 02:59:25;;;;;;;47.15;25.75;;;;;;;0.40;100.00;101514.84;4845722;29;20110;-82
2021/12/12 03:02:02;;;;;;;48.08;26.42;;;;;;;0.63;100.00;101544.00;4845804;29;20050;-82
2021/12/12 03:04:29;;;;;;;51.67;27.10;;;;;;;0.64;100.00;101543.91;4850902;29;20360;-81
2021/12/12 03:06:55;;;;;;;45.72;25.80;;;;;;;0.65;100.00;101542.94;4851495;29;20030;-82
2021/12/12 03:09:25;;;;;;;48.03;25.90;;;;;;;0.62;100.00;101531.72;4852430;29;20120;-81
2021/12/12 03:11:55;;;;;;;49.65;26.48;;;;;;;0.71;100.00;101552.22;4850117;29;20456;-82
2021/12/12 03:14:20;;;;;;;47.20;25.85;;;;;;;0.73;100.00;101552.09;4851397;29;20033;-82
2021/12/12 03:16:47;;;;;;;48.47;26.65;;;;;;;0.67;100.00;101534.88;4852540;29;20449;-82
2021/12/12 03:19:13;;;;;;;48.13;26.58;;;;;;;0.73;100.00;101550.31;4848409;29;20062;-82
2021/12/12 03:21:42;;;;;;;44.22;24.92;;;;;;;0.70;100.00;101542.59;4851974;29;20033;-82
2021/12/12 03:24:19;;;;;;;45.08;26.08;;;;;;;0.74;100.00;101548.50;4850557;29;20094;-82
2021/12/12 03:26:48;;;;;;;50.33;26.95;;;;;;;0.81;100.00;101561.16;4851822;29;20406;-82
2021/12/12 03:29:14;;;;;;;48.67;26.63;;;;;;;0.82;100.00;101560.19;4846455;29;20034;-82
2021/12/12 03:31:44;;;;;;;47.08;25.80;;;;;;;0.86;100.00;101566.09;4833303;29;20026;-81
2021/12/12 03:34:13;;;;;;;47.15;26.80;;;;;;;0.87;100.00;101567.81;4835981;29;20030;-82
2021/12/12 03:36:40;;;;;;;51.78;27.58;;;;;;;0.87;100.00;101558.03;4851587;29;20427;-82
2021/12/12 03:39:11;;;;;;;49.28;27.20;;;;;;;0.85;100.00;101554.66;4850089;29;20437;-82
2021/12/12 03:41:45;;;;;;;46.08;26.20;;;;;;;0.77;100.00;101538.53;4852430;29;20093;-81
2021/12/12 03:44:17;;;;;;;46.75;26.08;;;;;;;0.91;100.00;101551.53;4851286;29;20452;-81
2021/12/12 03:46:44;;;;;;;47.08;26.52;;;;;;;0.92;100.00;101557.69;4851909;29;20030;-82
2021/12/12 03:49:11;;;;;;;49.50;25.98;;;;;;;0.93;100.00;101554.94;4848170;29;20038;-82
2021/12/12 03:51:39;;;;;;;51.50;27.77;;;;;;;0.94;100.00;101543.34;4851559;29;20038;-81
2021/12/12 03:54:05;;;;;;;47.40;26.38;;;;;;;0.94;100.00;101537.22;4850180;29;20120;-82
2021/12/12 03:56:31;;;;;;;45.25;27.33;;;;;;;0.87;100.00;101523.59;4850290;29;20038;-81
2021/12/12 03:58:57;;;;;;;53.08;27.85;;;;;;;0.94;100.00;101540.72;4850157;29;20032;-81
2021/12/12 04:01:39;;;;;;;47.58;26.20;;;;;;;0.94;100.00;101538.06;4850657;29;20113;-81
2021/12/12 04:04:15;;;;;;;47.25;25.15;;;;;;;0.92;100.00;101537.31;4850322;29;20365;-82
2021/12/12 04:06:41;;;;;;;44.05;25.80;;;;;;;1.00;100.00;101535.91;4850893;29;20120;-82
2021/12/12 04:09:09;;;;;;;49.97;26.45;;;;;;;1.02;100.00;101536.63;4848752;29;20057;-82
2021/12/12 04:11:39;;;;;;;44.85;25.60;;;;;;;1.05;100.00;101539.03;4849422;29;20074;-81
2021/12/12 04:14:06;;;;;;;42.85;25.17;;;;;;;1.06;100.00;101538.94;4857156;29;20022;-82
2021/12/12 04:16:34;;;;;;;44.03;25.55;;;;;;;1.05;100.00;101537.22;4857595;29;20034;-82
2021/12/12 04:19:00;;;;;;;46.22;25.52;;;;;;;1.00;100.00;101522.66;4853842;29;20513;-82
2021/12/12 04:21:28;;;;;;;39.97;24.20;;;;;;;1.12;100.00;101545.53;4869119;29;20132;-82
2021/12/12 04:23:55;;;;;;;43.75;24.58;;;;;;;1.12;100.00;101554.31;4870293;29;20034;-82
2021/12/12 04:26:23;;;;;;;46.70;24.35;;;;;;;1.14;100.00;101564.81;4869612;29;20029;-82
2021/12/12 04:29:01;;;;;;;39.40;23.55;;;;;;;1.14;100.00;101572.78;4873900;29;20033;-82
2021/12/12 04:31:27;;;;;;;40.17;23.63;;;;;;;0.83;100.00;101522.16;4875903;29;20060;-82
2021/12/12 04:33:54;;;;;;;40.75;24.23;;;;;;;1.14;100.00;101570.13;4853375;29;20161;-81
2021/12/12 04:36:33;;;;;;;37.17;22.90;;;;;;;1.10;100.00;101563.38;4869717;29;20116;-81
2021/12/12 04:39:06;;;;;;;38.30;22.95;;;;;;;1.10;100.00;101563.38;4868588;29;20041;-82
2021/12/12 04:41:32;;;;;;;39.17;22.17;;;;;;;0.75;100.00;101515.75;4868692;29;20462;-82
2021/12/12 04:43:57;;;;;;;39.47;23.20;;;;;;;1.13;100.00;101576.41;4869417;29;20042;-81
2021/12/12 04:46:36;;;;;;;39.95;23.73;;;;;;;1.13;100.00;101568.44;4857426;29;20048;-82
2021/12/12 04:51:56;;;;;;;41.97;24.58;;;;;;;1.11;100.00;101554.47;4859641;29;20072;-82
2021/12/12 04:54:32;;;;;;;39.33;23.73;;;;;;;1.11;100.00;101551.81;4868987;29;20040;-82
2021/12/12 04:57:10;;;;;;;43.15;23.52;;;;;;;1.10;100.00;101556.28;4858656;29;20101;-82
2021/12/12 04:59:44;;;;;;;41.70;23.67;;;;;;;1.05;100.00;101541.69;4869783;29;20045;-81
2021/12/12 05:02:18;;;;;;;38.83;22.53;;;;;;;1.11;100.00;101551.81;4869304;29;20089;-82
2021/12/12 05:04:54;;;;;;;39.55;23.95;;;;;;;1.10;100.00;101548.31;4870492;29;20045;-82
2021/12/12 05:07:26;;;;;;;49.30;23.25;;;;;;;1.12;100.00;101546.38;4867362;29;20074;-81
2021/12/12 05:09:56;;;;;;;38.03;23.17;;;;;;;1.03;100.00;101533.88;4871982;29;20025;-82
2021/12/12 05:12:30;;;;;;;36.10;22.23;;;;;;;1.11;100.00;101538.56;4867315;29;20855;-82
2021/12/12 05:15:00;;;;;;;34.97;22.23;;;;;;;1.10;100.00;101531.59;4872512;29;20037;-81
2021/12/12 05:17:38;;;;;;;37.83;22.10;;;;;;;0.99;100.00;101519.13;4869853;29;20029;-81
2021/12/12 05:20:12;;;;;;;40.35;22.13;;;;;;;1.11;100.00;101533.25;4863835;29;20053;-82
2021/12/12 05:22:50;;;;;;;39.08;23.10;;;;;;;1.12;100.00;101530.47;4872940;29;20029;-82
2021/12/12 05:25:35;;;;;;;39.22;23.70;;;;;;;1.16;100.00;101539.06;4853488;29;20033;-82
2021/12/12 05:28:02;;;;;;;36.80;22.02;;;;;;;1.17;100.00;101543.38;4854769;29;20037;-82
2021/12/12 05:30:31;;;;;;;37.97;22.15;;;;;;;1.17;100.00;101538.09;4861901;29;20051;-82
2021/12/12 05:32:59;;;;;;;36.35;22.27;;;;;;;1.20;100.00;101535.19;4878340;29;20042;-82
2021/12/12 05:35:28;;;;;;;40.70;22.92;;;;;;;1.20;100.00;101539.66;4871391;29;20094;-82
2021/12/12 05:37:56;;;;;;;36.75;22.17;;;;;;;1.21;100.00;101547.47;4872788;29;20037;-82
2021/12/12 05:40:24;;;;;;;33.75;20.45;;;;;;;1.20;100.00;101553.75;4871978;29;20570;-82
2021/12/12 05:42:58;;;;;;;35.65;21.27;;;;;;;1.21;100.00;101547.47;4871814;29;20026;-82
2021/12/12 05:45:25;;;;;;;36.55;20.27;;;;;;;1.22;100.00;101553.63;4871033;29;20460;-82
2021/12/12 05:47:50;;;;;;;34.85;20.40;;;;;;;1.23;100.00;101550.03;4872280;29;20062;-82
2021/12/12 05:50:18;;;;;;;32.38;19.30;;;;;;;1.23;100.00;101552.69;4870501;29;20033;-81
2021/12/12 05:52:45;;;;;;;34.10;19.52;;;;;;;1.25;100.00;101554.22;4869921;29;20033;-82
2021/12/12 05:55:13;;;;;;;31.38;19.45;;;;;;;1.15;100.00;101546.13;4870466;29;20035;-81
2021/12/12 05:57:39;;;;;;;30.73;19.73;;;;;;;1.24;100.00;101568.44;4871271;29;20087;-81
2021/12/12 06:00:12;;;;;;;35.38;20.50;;;;;;;1.20;100.00;101558.22;4875769;29;20033;-82
2021/12/12 06:02:40;;;;;;;33.22;20.67;;;;;;;1.24;100.00;101565.78;4851203;29;20037;-81
2021/12/12 06:05:06;;;;;;;33.80;20.58;;;;;;;1.24;100.00;101568.44;4834039;29;20543;-82
2021/12/12 06:07:34;;;;;;;33.42;20.55;;;;;;;1.24;100.00;101573.75;4844869;29;20468;-82
2021/12/12 06:10:04;;;;;;;34.55;21.02;;;;;;;1.24;100.00;101579.06;4835109;29;20065;-81
2021/12/12 06:12:33;;;;;;;35.17;21.27;;;;;;;1.14;100.00;101568.31;4861085;29;20038;-81
2021/12/12 06:14:59;;;;;;;35.58;20.35;;;;;;;1.23;100.00;101576.53;4866671;29;20029;-81
2021/12/12 06:17:25;;;;;;;37.33;20.92;;;;;;;1.23;100.00;101580.03;4865808;29;20476;-81
2021/12/12 06:19:54;;;;;;;34.53;20.92;;;;;;;1.22;100.00;101577.47;4853330;29;20055;-82
2021/12/12 06:22:21;;;;;;;33.17;20.33;;;;;;;1.20;100.00;101568.81;4842415;29;20038;-82
2021/12/12 06:24:50;;;;;;;35.70;21.15;;;;;;;1.22;100.00;101580.97;4864318;29;20478;-82
2021/12/12 06:27:18;;;;;;;31.73;19.55;;;;;;;1.21;100.00;101584.59;4869212;29;20037;-81
2021/12/12 06:29:48;;;;;;;31.77;20.48;;;;;;;1.23;100.00;101582.69;4866892;29;20025;-81
2021/12/12 06:32:15;;;;;;;30.42;18.85;;;;;;;1.19;100.00;101573.25;4866426;29;20108;-82
2021/12/12 06:34:41;;;;;;;31.25;19.55;;;;;;;1.20;100.00;101582.91;4864186;29;20022;-82
2021/12/12 06:37:07;;;;;;;32.42;19.45;;;;;;;1.21;100.00;101581.94;4862602;29;20044;-81
2021/12/12 06:39:33;;;;;;;28.33;19.27;;;;;;;1.24;100.00;101589.66;4861278;29;20030;-82
2021/12/12 06:42:01;;;;;;;29.50;19.90;;;;;;;1.23;100.00;101593.28;4845677;29;20099;-82
2021/12/12 06:44:27;;;;;;;29.08;18.95;;;;;;;1.18;100.00;101590.13;4867601;29;20337;-82
2021/12/12 06:46:56;;;;;;;30.40;18.45;;;;;;;1.21;100.00;101600.50;4834604;29;20057;-82
2021/12/12 06:49:23;;;;;;;28.98;18.30;;;;;;;1.21;100.00;101599.66;4870234;29;20029;-82
2021/12/12 06:51:54;;;;;;;30.33;19.35;;;;;;;1.23;100.00;101601.22;4881462;29;20032;-81
2021/12/12 06:54:25;;;;;;;28.10;17.85;;;;;;;1.21;100.00;101605.78;4864190;29;20025;-82
2021/12/12 06:56:54;;;;;;;27.80;18.17;;;;;;;1.21;100.00;101599.66;4862052;29;20038;-82
2021/12/12 06:59:25;;;;;;;26.50;17.15;;;;;;;1.21;100.00;101600.50;4864245;29;20025;-82
2021/12/12 07:01:51;;;;;;;27.42;18.15;;;;;;;1.22;100.00;101602.16;4856395;29;20054;-82
2021/12/12 07:04:19;;;;;;;28.45;17.48;;;;;;;1.21;100.00;101599.66;4850301;29;20049;-81
2021/12/12 07:06:46;;;;;;;25.75;17.55;;;;;;;1.23;100.00;101609.19;4862180;29;20040;-81
2021/12/12 07:09:13;;;;;;;25.42;17.65;;;;;;;1.24;100.00;101602.91;4862428;29;20042;-82
2021/12/12 07:11:40;;;;;;;26.83;17.90;;;;;;;1.23;100.00;101603.03;4872502;29;20063;-81
2021/12/12 07:14:09;;;;;;;27.30;17.45;;;;;;;1.25;100.00;101611.69;4878922;29;20029;-82
2021/12/12 07:16:35;;;;;;;26.58;17.15;;;;;;;1.26;100.00;101619.56;4859191;29;20085;-82
2021/12/12 07:19:02;;;;;;;27.33;17.70;;;;;;;1.17;100.00;101605.19;4873432;29;20054;-82
2021/12/12 07:21:29;;;;;;;24.58;16.83;;;;;;;1.27;100.00;101612.44;4875779;29;20017;-82
2021/12/12 07:23:54;;;;;;;25.73;17.00;;;;;;;1.27;100.00;101613.28;4860353;29;20058;-82
2021/12/12 07:26:24;;;;;;;27.60;18.52;;;;;;;1.20;100.00;101601.47;4875823;29;20057;-82
2021/12/12 07:28:52;;;;;;;28.67;19.48;;;;;;;1.28;100.00;101607.00;4872500;29;20352;-82
2021/12/12 07:31:25;;;;;;;29.85;20.25;;;;;;;1.28;100.00;101612.31;4874761;29;20033;-81
2021/12/12 07:33:54;;;;;;;29.83;20.02;;;;;;;1.31;100.00;101612.06;4878910;29;20025;-82
2021/12/12 07:36:23;;;;;;;29.38;18.45;;;;;;;1.33;100.00;101622.56;4883206;29;20021;-83
2021/12/12 07:38:54;;;;;;;26.70;17.65;;;;;;;1.34;100.00;101627.75;4882995;29;20061;-83
2021/12/12 07:41:22;;;;;;;28.38;17.60;;;;;;;1.32;100.00;101626.16;4882340;29;20038;-83
2021/12/12 07:43:48;;;;;;;26.77;16.85;;;;;;;1.38;100.00;101631.00;4876280;29;20417;-82
2021/12/12 07:46:14;;;;;;;25.30;16.60;;;;;;;1.31;100.00;101622.69;4870047;29;20033;-82
2021/12/12 07:48:43;;;;;;;25.98;15.63;;;;;;;1.38;100.00;101626.53;4870750;29;20030;-82
2021/12/12 07:51:09;;;;;;;24.30;15.93;;;;;;;1.38;100.00;101621.22;4856786;29;20021;-82
2021/12/12 07:53:35;;;;;;;22.95;15.60;;;;;;;1.41;100.00;101622.81;4876861;29;20062;-81
2021/12/12 07:56:01;;;;;;;24.02;15.82;;;;;;;1.39;100.00;101622.94;4875124;29;20101;-81
2021/12/12 07:58:27;;;;;;;20.80;14.50;;;;;;;1.32;100.00;101599.66;5093690;23;20062;-83
2021/12/12 08:00:56;;;;;;;22.33;15.27;;;;;;;1.40;100.00;101616.66;4879397;29;20026;-82
2021/12/12 08:03:26;;;;;;;21.52;15.43;;;;;;;0.44;100.00;101462.50;5033569;23;20042;-82
2021/12/12 08:08:29;;;;;;;21.30;16.00;;;;;;;1.36;100.00;101601.13;5120256;23;20056;-86
2021/12/12 08:10:56;;;;;;;21.58;14.48;;;;;;;1.27;100.00;101572.69;4882694;29;20044;-84
2021/12/12 08:13:24;;;;;;;20.13;15.23;;;;;;;1.45;100.00;101610.16;4884010;29;20032;-85
2021/12/12 08:15:51;;;;;;;22.92;15.55;;;;;;;1.43;100.00;101604.16;5282800;23;20060;-84
2021/12/12 08:18:18;;;;;;;22.38;15.13;;;;;;;1.34;100.00;101585.31;4886755;29;20038;-84
2021/12/12 08:20:46;;;;;;;22.17;15.73;;;;;;;1.49;100.00;101604.50;4882060;29;20029;-83
2021/12/12 08:23:14;;;;;;;25.05;15.70;;;;;;;0.32;100.00;101408.66;5172504;24;21291;-83
2021/12/12 08:30:51;;;;;;;22.77;15.77;;;;;;;0.12;100.00;101390.84;5050382;24;20033;-84
2021/12/12 08:38:28;;;;;;;19.83;14.88;;;;;;;-0.19;100.00;101334.97;5689591;23;20041;-83
2021/12/12 08:40:57;;;;;;;22.65;16.02;;;;;;;0.94;100.00;101506.25;4844972;29;20034;-84
2021/12/12 08:51:10;;;;;;;22.63;15.60;;;;;;;0.92;100.00;101491.44;5030519;23;20069;-85
2021/12/12 08:53:36;;;;;;;22.75;15.43;;;;;;;0.56;100.00;101444.81;4868297;29;20101;-84
2021/12/12 08:56:03;;;;;;;23.65;16.35;;;;;;;0.96;100.00;101497.34;4856499;29;20032;-80
2021/12/12 09:01:11;;;;;;;26.75;16.85;;;;;;;1.74;100.00;101605.22;4972509;24;20073;-82
2021/12/12 09:03:39;;;;;;;25.20;16.63;;;;;;;1.76;100.00;101603.28;4858968;29;20061;-81
2021/12/12 09:06:07;;;;;;;22.45;15.82;;;;;;;1.79;100.00;101601.22;4842250;29;20386;-83
2021/12/12 09:08:58;;;;;;;23.75;16.98;;;;;;;1.85;100.00;101605.19;4846053;29;20025;-82
2021/12/12 09:11:29;;;;;;;25.90;17.05;;;;;;;1.82;100.00;101590.38;4845047;29;20006;-81
2021/12/12 09:14:01;;;;;;;24.75;16.80;;;;;;;1.86;100.00;101597.13;4862770;29;20006;-82
2021/12/12 09:16:38;;;;;;;23.10;16.85;;;;;;;1.86;100.00;101591.81;4865764;29;20034;-82
2021/12/12 09:19:08;;;;;;;23.92;16.33;;;;;;;1.85;100.00;101606.06;4862755;29;20090;-83
2021/12/12 09:21:48;;;;;;;26.30;17.67;;;;;;;1.86;100.00;101606.88;4864167;29;20029;-82
2021/12/12 09:24:18;;;;;;;24.58;16.85;;;;;;;1.71;100.00;101578.91;4862236;29;20037;-82
2021/12/12 09:26:50;;;;;;;25.13;16.48;;;;;;;1.86;100.00;101604.25;4863890;29;20027;-83
2021/12/12 09:29:32;;;;;;;25.30;16.73;;;;;;;1.79;100.00;101584.47;4863002;29;20041;-83
2021/12/12 09:32:05;;;;;;;26.75;16.13;;;;;;;1.92;100.00;101602.88;4857631;29;20022;-82
2021/12/12 09:34:43;;;;;;;27.90;16.50;;;;;;;1.95;100.00;101597.31;4850979;29;20045;-82
2021/12/12 09:37:19;;;;;;;23.15;15.35;;;;;;;1.99;100.00;101593.47;4856699;29;20029;-82
2021/12/12 09:39:52;;;;;;;22.35;15.77;;;;;;;2.03;100.00;101597.56;4858697;29;20021;-81
2021/12/12 09:42:27;;;;;;;26.40;15.63;;;;;;;2.07;100.00;101599.00;4855609;29;20034;-82
2021/12/12 09:44:58;;;;;;;22.63;14.93;;;;;;;2.08;100.00;101603.34;4853947;29;20037;-82
2021/12/12 09:51:34;;;;;;;25.55;16.23;;;;;;;2.10;100.00;101593.44;4838958;29;20037;-82
2021/12/12 09:54:30;;;;;;;22.55;15.38;;;;;;;2.07;100.00;101577.75;4852002;29;20313;-83
2021/12/12 09:57:17;;;;;;;25.02;16.15;;;;;;;2.12;100.00;101586.22;4853092;29;20089;-82
2021/12/12 10:00:08;;;;;;;24.15;15.80;;;;;;;2.15;100.00;101579.78;4841969;29;20038;-82
2021/12/12 10:03:05;;;;;;;24.55;16.30;;;;;;;2.18;100.00;101580.38;4858777;29;20046;-82
2021/12/12 10:05:43;;;;;;;21.88;15.10;;;;;;;2.10;100.00;101567.72;4858653;29;20504;-82
2021/12/12 10:08:36;;;;;;;24.70;15.73;;;;;;;2.25;100.00;101586.91;4864700;29;20034;-83
2021/12/12 10:11:17;;;;;;;22.15;15.98;;;;;;;2.28;100.00;101576.00;4860364;29;20039;-82
2021/12/12 10:14:05;;;;;;;23.35;15.77;;;;;;;2.13;100.00;101550.72;4857355;29;20014;-82
2021/12/12 10:16:55;;;;;;;24.88;15.70;;;;;;;2.32;100.00;101576.59;4847583;29;20070;-83
2021/12/12 10:19:42;;;;;;;27.58;17.63;;;;;;;2.37;100.00;101579.72;4865227;29;20030;-81
2021/12/12 10:22:29;;;;;;;21.77;16.02;;;;;;;2.33;100.00;101562.34;4865739;29;20034;-84
2021/12/12 10:25:00;;;;;;;23.42;16.38;;;;;;;2.40;100.00;101568.84;4864634;29;20034;-83
2021/12/12 10:27:50;;;;;;;22.20;15.90;;;;;;;2.43;100.00;101567.75;4863507;29;20085;-83
2021/12/12 10:30:25;;;;;;;20.92;14.20;;;;;;;2.43;100.00;101576.56;4864244;29;20032;-83
2021/12/12 10:32:53;;;;;;;25.60;18.70;;;;;;;2.44;100.00;101580.03;4858918;29;20049;-82
2021/12/12 10:45:49;;;;;;;27.40;20.02;;;;;;;1.71;100.00;101428.53;5544577;23;20032;-78
2021/12/12 10:51:09;;;;;;;20.70;14.57;;;;;;;2.71;100.00;101577.72;4842333;29;20257;-83
2021/12/12 11:04:12;;;;;;;23.00;15.07;;;;;;;2.78;100.00;101573.63;5701651;24;20053;-84
2021/12/12 11:24:49;;;;;;;21.40;14.57;;;;;;;2.42;100.00;101545.66;5547332;24;20057;-84
2021/12/12 11:32:54;;;;;;;19.98;14.23;;;;;;;2.00;100.00;101486.34;5093889;24;20033;-84
2021/12/12 12:09:13;;;;;;;19.00;13.07;;;;;;;2.56;100.00;101574.56;4837763;29;20079;-84
2021/12/12 13:15:20;;;;;;;19.58;12.88;;;;;;;2.49;100.00;101577.88;5104402;24;20038;-83
2021/12/12 16:22:58;;;;;;;74.72;39.63;;;;;;;0.91;100.00;101426.16;5798592;24;20636;-81
2021/12/12 16:29:15;;;;;;;41.30;23.30;;;;;;;2.44;100.00;101678.31;5806340;24;20030;31
2021/12/12 17:08:19;;;;;;;21.90;14.70;;;;;;;2.47;100.00;101686.88;5861641;24;20037;31
2021/12/12 17:35:08;;;;;;;33.60;25.52;;;;;;;2.50;100.00;101677.84;5307117;24;20532;-86
2021/12/12 17:37:40;;;;;;;25.15;19.10;;;;;;;1.30;100.00;101493.72;5125163;24;20091;-86
2021/12/12 18:03:34;;;;;;;51.15;31.38;;;;;;;1.29;100.00;101494.72;5437163;24;20063;-86
2021/12/12 18:14:04;;;;;;;82.30;42.60;;;;;;;2.58;100.00;101700.16;5480838;24;20025;-79
2021/12/12 18:29:42;;;;;;;37.50;23.35;;;;;;;2.53;100.00;101702.34;5630034;24;20049;-85
2021/12/12 18:32:09;;;;;;;27.02;17.60;;;;;;;2.54;100.00;101708.50;4827111;29;20035;-84
2021/12/12 18:34:45;;;;;;;28.98;18.20;;;;;;;2.56;100.00;101709.22;4845990;29;20133;-85
2021/12/12 18:37:17;;;;;;;29.67;17.45;;;;;;;2.52;100.00;101711.28;4823948;29;20037;-83
2021/12/12 18:39:46;;;;;;;30.55;17.77;;;;;;;2.16;100.00;101654.03;4853083;29;20030;-84
2021/12/12 18:42:18;;;;;;;29.98;17.58;;;;;;;2.52;100.00;101705.13;5326538;24;20063;-82
2021/12/12 18:44:55;;;;;;;31.33;17.88;;;;;;;2.54;100.00;101719.13;4810461;29;20039;-84
2021/12/12 18:52:49;;;;;;;28.35;17.30;;;;;;;2.40;100.00;101700.81;4914056;24;20051;-84
2021/12/12 18:55:26;;;;;;;28.85;16.98;;;;;;;2.44;100.00;101708.38;4845821;29;20046;-84
2021/12/12 18:58:07;;;;;;;38.13;21.55;;;;;;;2.47;100.00;101718.78;4845564;29;20102;-85
2021/12/12 19:00:43;;;;;;;40.33;23.92;;;;;;;2.50;100.00;101707.06;4847352;29;20060;-85
2021/12/12 19:03:35;;;;;;;34.50;20.58;;;;;;;2.20;100.00;101671.38;4846899;29;20023;-83
2021/12/12 19:06:02;;;;;;;30.38;17.65;;;;;;;2.46;100.00;101722.41;4841066;29;20017;-83
2021/12/12 19:08:34;;;;;;;28.70;16.77;;;;;;;2.45;100.00;101725.16;4843116;29;20042;-83
2021/12/12 19:11:25;;;;;;;31.58;17.42;;;;;;;2.46;100.00;101729.53;4847683;29;20104;-85
2021/12/12 19:13:55;;;;;;;30.40;17.02;;;;;;;1.29;100.00;101555.69;4928970;24;20038;-85
2021/12/12 19:18:55;;;;;;;31.63;19.15;;;;;;;0.79;100.00;101491.53;4804985;29;20048;-84
2021/12/12 19:24:03;;;;;;;31.33;18.58;;;;;;;1.37;100.00;101577.13;5430097;24;20095;-85
2021/12/12 19:26:39;;;;;;;31.10;18.65;;;;;;;2.43;100.00;101743.91;4843224;29;20042;-84
2021/12/12 19:29:09;;;;;;;33.20;18.60;;;;;;;2.41;100.00;101750.28;4844609;29;20018;-84
2021/12/12 19:31:35;;;;;;;35.50;18.40;;;;;;;2.34;100.00;101748.13;4841015;29;20023;-84
2021/12/12 19:34:05;;;;;;;33.92;18.67;;;;;;;2.30;100.00;101748.50;4810984;29;20041;-85
2021/12/12 19:36:41;;;;;;;35.05;18.75;;;;;;;2.43;100.00;101757.19;4840955;29;20042;-84
2021/12/12 19:39:12;;;;;;;28.08;17.50;;;;;;;2.41;100.00;101752.94;4827117;29;20030;-85
2021/12/12 19:41:40;;;;;;;33.33;17.95;;;;;;;2.27;100.00;101754.06;4828770;29;20034;-86